This is the latest recevied weather packets stored in our database for station/object IR9AK-10. If no packets are shown the sender has not sent any weather packets the latest 10 day(s).
| Time | Temp. | Humidity | Pressure | Rain* | Wind** | Luminosity | Snow |
|---|---|---|---|---|---|---|---|
| 1777466311 | 25° C | 50% | 1060.6 hPa | - | - | - | - |
| 1777465712 | 24.44° C | 52% | 1060.6 hPa | - | - | - | - |
| 1777465113 | 24.44° C | 54% | 1060.6 hPa | - | - | - | - |
| 1777464513 | 23.89° C | 58% | 1060.5 hPa | - | - | - | - |
| 1777464335 | 23.33° C | 58% | 1060.6 hPa | - | - | - | - |
| 1777463915 | 23.33° C | 58% | 1060.6 hPa | - | - | - | - |
| 1777463316 | 23.33° C | 60% | 1060.7 hPa | - | - | - | - |
| 1777462716 | 22.22° C | 62% | 1060.9 hPa | - | - | - | - |
| 1777462117 | 22.22° C | 62% | 1060.9 hPa | - | - | - | - |
| 1777461517 | 22.22° C | 60% | 1060.8 hPa | - | - | - | - |
| 1777460918 | 22.22° C | 59% | 1060.9 hPa | - | - | - | - |
| 1777460319 | 21.67° C | 63% | 1060.8 hPa | - | - | - | - |
| 1777459766 | 21.67° C | 63% | 1060.8 hPa | - | - | - | - |
| 1777459720 | 21.67° C | 63% | 1060.8 hPa | - | - | - | - |
| 1777459121 | 22.22° C | 62% | 1060.9 hPa | - | - | - | - |
| 1777458522 | 22.22° C | 64% | 1060.9 hPa | - | - | - | - |
| 1777457923 | 22.22° C | 65% | 1060.9 hPa | - | - | - | - |
| 1777457324 | 21.67° C | 64% | 1060.9 hPa | - | - | - | - |
| 1777456724 | 22.22° C | 62% | 1060.8 hPa | - | - | - | - |
| 1777456125 | 22.22° C | 62% | 1060.9 hPa | - | - | - | - |
| 1777455526 | 22.22° C | 64% | 1060.9 hPa | - | - | - | - |
| 1777454926 | 21.67° C | 65% | 1060.9 hPa | - | - | - | - |
| 1777454326 | 21.67° C | 66% | 1061 hPa | - | - | - | - |
| 1777453728 | 21.11° C | 67% | 1061.1 hPa | - | - | - | - |
| 1777453129 | 21.11° C | 67% | 1061.1 hPa | - | - | - | - |
* Rain since midnight (hover to see other rain measurements)
** Current wind speed in m/s (hover to see current wind gust speed)